Portada
METAR-TAF:

METAR-TAF

Aeroports :

Rutherford County Airport (Marchman Field)

Rutherfordton, Carolina del Nord, Estats Units d'Amèrica

latitud: 35-25-42N, longitud: 081-56-06W, altitud: 329 m

Observació

L'informe es va fer fa 16 minuts, a les 17:55 UTC
Vent 5 kt del Sud/Sud-Oest
Temperatura 15°C
Humitat 55%
Pressió 1016 hPa
Visibilitat: 16.1 km
Cel clar

METAR: KFQD 221755Z AUTO 20005KT 10SM CLR 15/06 A3000 RMK AO2

Hora: 13:11 (18:11 UTC)


TAF: manca

Observacions i pronòstics meteorològics de més de 4000 aeroports (METAR i TAF).

Les estacions disponibles són els punts grocs i vermells al mapa.

Posi el ratolí al punt desitjat per veure el nom de l'estació.

Feu clic per veure les observacions i els pronòstics meteorològics.

Per canviar el mapa: feu clic els botons verds amb una creu de color negre per apropar; al botó verd amb un guió per allunyar la imatge; o en les fletxes verdes per a mapes adjacents.


METAR-TAF: